Thursday, August 16, 2018, 8:57 AM CDT
Back to Local

KGYY, Gary Regional

Location: Gary, IN, United States Lat: 41.617
Local Time: 8:57 AM CDT (13:57 GMT) Lon: -87.417
Time Zone: US/Central Elev: 590 ft

Show me the last for .
Show Decoded

2018-08-16 07:45 METAR KGYY 161245Z 00000KT 5SM BR SCT004 BKN010 OVC025 23/22 A2996 =
2018-08-16 06:45 METAR KGYY 161145Z 00000KT 5SM BR BKN010 OVC040 22/22 A2995 =
2018-08-16 05:45 METAR KGYY 161045Z 00000KT 7SM OVC008 22/22 A2993 =
2018-08-16 04:45 METAR KGYY 160945Z 00000KT 7SM SCT008 SCT014 BKN021 22/21 A2993 =
2018-08-16 04:15 METAR KGYY 160915Z AUTO 00000KT 7SM OVC014 22/22 A2993 RMK AO2 T02200216 =
2018-08-16 03:55 METAR KGYY 160855Z AUTO 00000KT 7SM OVC012 22/22 A2992 RMK AO2 LTG DSNT S
                 T02200215 =
2018-08-16 03:35 METAR KGYY 160835Z AUTO 00000KT 7SM BKN010 BKN036 22/22 A2992 RMK AO2 T02210215
                 =
2018-08-16 03:15 METAR KGYY 160815Z AUTO 14003KT 7SM BKN036 22/22 A2992 RMK AO2 T02230215 =
2018-08-16 02:55 METAR KGYY 160755Z AUTO 15003KT 10SM OVC036 22/22 A2993 RMK AO2 T02230215 =
2018-08-16 02:35 METAR KGYY 160735Z AUTO 00000KT 10SM OVC034 22/22 A2993 RMK AO2 T02240215 =
2018-08-16 02:15 METAR KGYY 160715Z AUTO 15003KT 10SM OVC030 23/22 A2992 RMK AO2 T02250215 =
2018-08-16 01:55 METAR KGYY 160655Z AUTO 13004KT 10SM BKN025 OVC030 23/22 A2993 RMK AO2 T02250215
                 =
2018-08-16 01:35 METAR KGYY 160635Z AUTO 00000KT 10SM SCT013 OVC025 22/22 A2993 RMK AO2 T02230215
                 =
2018-08-16 01:15 METAR KGYY 160615Z AUTO 00000KT 10SM SCT008 BKN013 OVC025 22/21 A2994 RMK AO2
                 T02220214 =
2018-08-16 00:55 METAR KGYY 160555Z AUTO 00000KT 10SM SCT011 22/21 A2994 RMK AO2 T02200210 10262
                 20220 402870206 =
2018-08-16 00:35 METAR KGYY 160535Z AUTO 14003KT 10SM SCT024 22/21 A2994 RMK AO2 T02220211 =
2018-08-16 00:15 METAR KGYY 160515Z AUTO 00000KT 10SM BKN024 22/21 A2995 RMK AO2 T02230210 =
2018-08-15 23:55 METAR KGYY 160455Z AUTO 00000KT 10SM BKN024 23/21 A2995 RMK AO2 T02260211 =
2018-08-15 23:35 METAR KGYY 160435Z AUTO 15004KT 10SM BKN022 23/21 A2995 RMK AO2 T02260210 =
2018-08-15 23:15 METAR KGYY 160415Z AUTO 15004KT 10SM BKN020 23/21 A2994 RMK AO2 T02270210 =
2018-08-15 22:55 METAR KGYY 160355Z AUTO 13003KT 10SM CLR 23/21 A2994 RMK AO2 T02270209 =
2018-08-15 22:35 METAR KGYY 160335Z AUTO 14003KT 10SM CLR 23/21 A2994 RMK AO2 T02270207 =
2018-08-15 22:15 METAR KGYY 160315Z AUTO 00000KT 10SM CLR 23/21 A2994 RMK AO2 T02300206 =
2018-08-15 21:45 METAR KGYY 160245Z 16005KT 10SM BKN180 OVC250 23/20 A2995 =
2018-08-15 20:45 METAR KGYY 160145Z 16007KT 10SM BKN180 OVC250 24/20 A2995 =
2018-08-15 19:45 METAR KGYY 160045Z 15007KT 10SM FEW024 SCT055 BKN250 25/20 A2993 =
2018-08-15 18:45 METAR KGYY 152345Z 16010KT 10SM BKN032 BKN250 27/21 A2991 RMK LTG DSNT NW =
2018-08-15 17:45 METAR KGYY 152245Z 15010KT 10SM SCT030 BKN250 27/20 A2991 =
2018-08-15 16:45 METAR KGYY 152145Z 16012KT 10SM SCT032 BKN250 28/21 A2990 =
2018-08-15 15:45 METAR KGYY 152045Z 15007KT 10SM SCT025 BKN250 27/21 A2992 =
2018-08-15 14:45 METAR KGYY 151945Z 16007KT 10SM BKN024 BKN250 27/20 A2994 =
2018-08-15 13:45 METAR KGYY 151845Z 16015KT 10SM SCT028 SCT065 BKN150 28/20 A2994 =
2018-08-15 12:45 METAR KGYY 151745Z 13006KT 10SM OVC055 28/21 A2995 =
2018-08-15 11:45 METAR KGYY 151645Z 15007KT 10SM OVC150 28/21 A2996 =
2018-08-15 10:45 METAR KGYY 151545Z 14011KT 10SM OVC150 27/21 A2997 =
2018-08-15 09:45 METAR KGYY 151445Z 00000KT 10SM BKN150 26/20 A2997 RMK RAE11 =

Support USWX by starting your Amazon purchase here.